Time;durP1;ratioP1;P1;durP2;ratioP2;P2;SDS_P1;SDS_P2;PMS_P1;PMS_P2;Temp;Humidity;BMP_temperature;BMP_pressure;BME280_temperature;BME280_humidity;BME280_pressure;Samples;Min_cycle;Max_cycle;Signal;HPM_P1;HPM_P2
2021/05/28 00:02:04;;;;;;;;;;;13.90;94.40;;;;;;5115128;28;19907;-70
2021/05/28 00:04:31;;;;;;;;;;;14.00;93.70;;;;;;5116308;28;20003;-72
2021/05/28 00:06:57;;;;;;;;;;;14.10;93.10;;;;;;5116312;28;20348;-69
2021/05/28 00:09:27;;;;;;;;;;;14.00;92.30;;;;;;5116325;28;19908;-69
2021/05/28 00:11:54;;;;;;;;;;;14.00;92.80;;;;;;5116335;28;20263;-69
2021/05/28 00:14:21;;;;;;;;;;;14.00;93.60;;;;;;5116927;28;19907;-69
2021/05/28 00:16:47;;;;;;;;;;;14.10;93.30;;;;;;5116710;28;19989;-67
2021/05/28 00:19:14;;;;;;;;;;;14.10;93.60;;;;;;5115885;28;19915;-72
2021/05/28 00:21:41;;;;;;;;;;;14.10;93.40;;;;;;5115645;28;19994;-70
2021/05/28 00:24:07;;;;;;;;;;;14.10;93.50;;;;;;5115755;27;19923;-71
2021/05/28 00:26:34;;;;;;;;;;;14.20;93.10;;;;;;5115841;28;19998;-70
2021/05/28 00:29:01;;;;;;;;;;;14.20;93.20;;;;;;5115489;28;19908;-72
2021/05/28 00:31:28;;;;;;;;;;;14.30;93.20;;;;;;5115753;28;20402;-72
2021/05/28 00:33:54;;;;;;;;;;;14.30;93.40;;;;;;5115279;28;20346;-71
2021/05/28 00:36:21;;;;;;;;;;;14.30;93.70;;;;;;5115476;28;19929;-71
2021/05/28 00:38:48;;;;;;;;;;;14.40;93.20;;;;;;5115280;28;19907;-71
2021/05/28 00:41:14;;;;;;;;;;;14.40;92.80;;;;;;5115577;28;20277;-71
2021/05/28 00:43:41;;;;;;;;;;;14.50;92.50;;;;;;5103260;28;19920;-70
2021/05/28 00:46:08;;;;;;;;;;;14.60;91.10;;;;;;5100491;28;19960;-69
2021/05/28 00:48:34;;;;;;;;;;;14.60;91.50;;;;;;5115260;28;19912;-70
2021/05/28 00:51:01;;;;;;;;;;;14.80;91.90;;;;;;5114630;28;19908;-68
2021/05/28 00:53:29;;;;;;;;;;;14.80;90.30;;;;;;5116048;28;19931;-71
2021/05/28 00:55:56;;;;;;;;;;;14.80;88.80;;;;;;5115776;28;19923;-69
2021/05/28 00:58:23;;;;;;;;;;;15.00;86.90;;;;;;5115778;28;19964;-70
2021/05/28 01:00:50;;;;;;;;;;;15.10;86.10;;;;;;5116081;28;20423;-70
2021/05/28 01:03:17;;;;;;;;;;;15.20;87.20;;;;;;5114617;28;19907;-70
2021/05/28 01:05:43;;;;;;;;;;;15.40;86.40;;;;;;5115271;28;19912;-72
2021/05/28 01:08:10;;;;;;;;;;;15.60;84.60;;;;;;5115021;28;19952;-70
2021/05/28 01:10:37;;;;;;;;;;;15.60;84.30;;;;;;5115293;28;19908;-72
2021/05/28 01:13:05;;;;;;;;;;;15.80;82.70;;;;;;5115029;28;20012;-74
2021/05/28 01:15:32;;;;;;;;;;;15.80;82.60;;;;;;5114681;28;19911;-68
2021/05/28 01:17:59;;;;;;;;;;;15.70;81.20;;;;;;5114506;28;19912;-71
2021/05/28 01:20:26;;;;;;;;;;;15.60;81.20;;;;;;5114580;28;19907;-68
2021/05/28 01:22:53;;;;;;;;;;;15.40;80.60;;;;;;5114540;28;19915;-71
2021/05/28 01:25:21;;;;;;;;;;;15.20;80.50;;;;;;5114835;28;19915;-68
2021/05/28 01:27:47;;;;;;;;;;;15.30;80.90;;;;;;5114682;28;19908;-69
2021/05/28 01:30:15;;;;;;;;;;;15.40;79.00;;;;;;5114355;28;20418;-71
2021/05/28 01:32:42;;;;;;;;;;;15.40;79.40;;;;;;5114229;28;19939;-68
2021/05/28 01:35:10;;;;;;;;;;;15.50;77.00;;;;;;5114347;28;20279;-68
2021/05/28 01:37:37;;;;;;;;;;;15.40;75.80;;;;;;5114168;28;19915;-71
2021/05/28 01:40:04;;;;;;;;;;;15.40;76.30;;;;;;5114185;28;19908;-70
2021/05/28 01:42:30;;;;;;;;;;;15.30;75.20;;;;;;5114066;28;19908;-68
2021/05/28 01:44:58;;;;;;;;;;;15.40;75.90;;;;;;5112559;28;19916;-69
2021/05/28 01:47:25;;;;;;;;;;;15.40;74.20;;;;;;5114009;28;19930;-73
2021/05/28 01:49:52;;;;;;;;;;;15.40;74.80;;;;;;5114100;28;19912;-68
2021/05/28 01:52:19;;;;;;;;;;;15.40;76.20;;;;;;5114006;28;20047;-71
2021/05/28 01:54:46;;;;;;;;;;;15.30;75.80;;;;;;5113858;28;19998;-69
2021/05/28 01:57:13;;;;;;;;;;;15.20;75.60;;;;;;5113770;28;19977;-70
2021/05/28 01:59:40;;;;;;;;;;;15.10;76.00;;;;;;5113844;28;19908;-69
2021/05/28 02:02:06;;;;;;;;;;;15.10;76.10;;;;;;5113976;28;20270;-70
2021/05/28 02:04:33;;;;;;;;;;;15.10;76.70;;;;;;5112304;28;19908;-69
2021/05/28 02:07:00;;;;;;;;;;;15.20;76.10;;;;;;5113559;28;20006;-69
2021/05/28 02:09:27;;;;;;;;;;;15.20;75.30;;;;;;5113549;28;19907;-71
2021/05/28 02:11:53;;;;;;;;;;;15.20;76.40;;;;;;5113369;28;19908;-69
2021/05/28 02:14:20;;;;;;;;;;;15.10;75.20;;;;;;5113496;28;19908;-68
2021/05/28 02:16:49;;;;;;;;;;;15.10;75.00;;;;;;5113309;28;19941;-70
2021/05/28 02:19:16;;;;;;;;;;;15.20;75.10;;;;;;5113505;28;19911;-71
2021/05/28 02:21:42;;;;;;;;;;;15.20;75.50;;;;;;5113690;28;19961;-69
2021/05/28 02:24:13;;;;;;;;;;;15.10;74.20;;;;;;5113470;28;19981;-69
2021/05/28 02:26:41;;;;;;;;;;;15.20;75.60;;;;;;5113508;28;19935;-72
2021/05/28 02:29:07;;;;;;;;;;;15.30;75.40;;;;;;5113147;28;19907;-72
2021/05/28 02:31:34;;;;;;;;;;;15.30;75.10;;;;;;5113462;28;19979;-73
2021/05/28 02:34:01;;;;;;;;;;;15.40;76.10;;;;;;5113326;28;19915;-72
2021/05/28 02:36:27;;;;;;;;;;;15.30;75.10;;;;;;5113253;28;19915;-72
2021/05/28 02:38:54;;;;;;;;;;;15.30;75.70;;;;;;5112841;28;19911;-72
2021/05/28 02:41:21;;;;;;;;;;;15.40;73.60;;;;;;5113300;28;20369;-73
2021/05/28 02:43:47;;;;;;;;;;;15.30;73.20;;;;;;5113187;28;19998;-73
2021/05/28 02:46:14;;;;;;;;;;;15.30;73.00;;;;;;5113237;28;20366;-73
2021/05/28 02:48:41;;;;;;;;;;;15.30;73.10;;;;;;5113088;28;20282;-71
2021/05/28 02:51:07;;;;;;;;;;;15.30;74.20;;;;;;5113062;28;20346;-71
2021/05/28 02:53:34;;;;;;;;;;;15.30;73.30;;;;;;5113087;28;20362;-70
2021/05/28 02:56:02;;;;;;;;;;;15.30;74.50;;;;;;5112979;28;19934;-69
2021/05/28 02:58:28;;;;;;;;;;;15.40;73.90;;;;;;5113058;28;19911;-71
2021/05/28 03:00:55;;;;;;;;;;;15.30;71.70;;;;;;5112995;28;19918;-71
2021/05/28 03:03:22;;;;;;;;;;;15.40;73.60;;;;;;5113012;28;20385;-72
2021/05/28 03:05:52;;;;;;;;;;;15.40;73.10;;;;;;5113009;28;19911;-72
2021/05/28 03:08:19;;;;;;;;;;;15.30;72.10;;;;;;5112984;28;19915;-71
2021/05/28 03:10:46;;;;;;;;;;;15.40;71.60;;;;;;5112810;28;19911;-72
2021/05/28 03:13:12;;;;;;;;;;;15.30;72.60;;;;;;5112905;28;19908;-72
2021/05/28 03:15:39;;;;;;;;;;;15.30;72.90;;;;;;5112973;28;19912;-72
2021/05/28 03:18:12;;;;;;;;;;;15.40;72.10;;;;;;5112819;28;19961;-72
2021/05/28 03:20:41;;;;;;;;;;;15.30;72.80;;;;;;5112767;28;19922;-73
2021/05/28 03:23:08;;;;;;;;;;;15.30;73.60;;;;;;5112551;28;20006;-71
2021/05/28 03:25:38;;;;;;;;;;;15.40;71.20;;;;;;5112946;28;19908;-71
2021/05/28 03:28:05;;;;;;;;;;;15.30;71.00;;;;;;5116797;28;19907;-71
2021/05/28 03:30:31;;;;;;;;;;;15.30;71.90;;;;;;5110873;28;19916;-69
2021/05/28 03:32:58;;;;;;;;;;;15.30;71.70;;;;;;5085430;28;20011;-68
2021/05/28 03:35:25;;;;;;;;;;;15.30;71.70;;;;;;5075140;28;19915;-70
2021/05/28 03:37:51;;;;;;;;;;;15.30;71.70;;;;;;5075252;28;19969;-71
2021/05/28 03:40:18;;;;;;;;;;;15.30;72.20;;;;;;5075222;28;19915;-69
2021/05/28 03:42:45;;;;;;;;;;;15.30;72.60;;;;;;5074699;28;19908;-70
2021/05/28 03:45:12;;;;;;;;;;;15.20;73.90;;;;;;5075332;28;19947;-71
2021/05/28 03:47:39;;;;;;;;;;;15.30;75.40;;;;;;5074868;28;20390;-70
2021/05/28 03:50:06;;;;;;;;;;;15.40;74.00;;;;;;5075908;28;20371;-71
2021/05/28 03:52:33;;;;;;;;;;;15.30;73.10;;;;;;5075686;28;19924;-70
2021/05/28 03:55:00;;;;;;;;;;;15.30;73.40;;;;;;5121902;27;19931;-70
2021/05/28 03:57:26;;;;;;;;;;;15.30;72.80;;;;;;5096339;28;19923;-70
2021/05/28 03:59:53;;;;;;;;;;;15.30;73.60;;;;;;5095971;28;19908;-70
2021/05/28 04:02:20;;;;;;;;;;;15.40;73.00;;;;;;5095916;28;19908;-68
2021/05/28 04:04:46;;;;;;;;;;;15.50;74.10;;;;;;5095952;28;19915;-69
2021/05/28 04:07:13;;;;;;;;;;;15.50;72.70;;;;;;5095887;28;19956;-71
2021/05/28 04:09:40;;;;;;;;;;;15.50;72.20;;;;;;5095456;28;19915;-70
2021/05/28 04:12:07;;;;;;;;;;;15.40;68.30;;;;;;5095659;28;20326;-69
2021/05/28 04:14:35;;;;;;;;;;;15.20;68.10;;;;;;5095431;28;19908;-70
2021/05/28 04:17:01;;;;;;;;;;;15.20;68.60;;;;;;5095192;28;19920;-71
2021/05/28 04:19:28;;;;;;;;;;;15.20;68.20;;;;;;5095487;28;19908;-73
2021/05/28 04:21:55;;;;;;;;;;;15.20;68.90;;;;;;5095630;28;19912;-72
2021/05/28 04:24:21;;;;;;;;;;;15.20;70.00;;;;;;5095407;28;19999;-72
2021/05/28 04:26:48;;;;;;;;;;;15.20;69.80;;;;;;5095164;28;19908;-72
2021/05/28 04:29:17;;;;;;;;;;;15.10;70.00;;;;;;5095373;28;20007;-71
2021/05/28 04:31:44;;;;;;;;;;;15.10;70.70;;;;;;5095250;28;19919;-72
2021/05/28 04:34:11;;;;;;;;;;;15.00;70.00;;;;;;5095050;28;19908;-73
2021/05/28 04:36:37;;;;;;;;;;;15.00;70.30;;;;;;5094701;28;19912;-71
2021/05/28 04:39:04;;;;;;;;;;;15.00;69.20;;;;;;5094747;28;19916;-71
2021/05/28 04:41:31;;;;;;;;;;;14.90;70.30;;;;;;5095015;28;19915;-71
2021/05/28 04:43:57;;;;;;;;;;;14.90;70.20;;;;;;5094532;28;20374;-70
2021/05/28 04:46:24;;;;;;;;;;;14.90;70.30;;;;;;5094914;28;19992;-72
2021/05/28 04:48:51;;;;;;;;;;;15.00;70.60;;;;;;5095257;28;20358;-70
2021/05/28 04:51:18;;;;;;;;;;;15.00;70.90;;;;;;5127533;27;19954;-71
2021/05/28 04:53:44;;;;;;;;;;;15.00;70.90;;;;;;5094551;28;20504;-72
2021/05/28 04:56:11;;;;;;;;;;;15.00;71.70;;;;;;5094849;28;20356;-72
2021/05/28 04:58:38;;;;;;;;;;;15.00;72.10;;;;;;5093281;28;20274;-71
2021/05/28 05:01:04;;;;;;;;;;;15.00;70.70;;;;;;5094362;28;20309;-72
2021/05/28 05:03:31;;;;;;;;;;;15.00;71.40;;;;;;5094360;28;19908;-71
2021/05/28 05:05:57;;;;;;;;;;;15.00;70.60;;;;;;5094345;28;19995;-72
2021/05/28 05:08:24;;;;;;;;;;;15.00;70.40;;;;;;5094221;28;20347;-70
2021/05/28 05:10:51;;;;;;;;;;;14.90;70.70;;;;;;5094001;28;19912;-71
2021/05/28 05:13:17;;;;;;;;;;;14.90;71.10;;;;;;5094092;28;19977;-72
2021/05/28 05:15:44;;;;;;;;;;;14.80;72.10;;;;;;5093976;28;19931;-71
2021/05/28 05:18:11;;;;;;;;;;;14.80;73.30;;;;;;5093947;28;19911;-72
2021/05/28 05:20:37;;;;;;;;;;;14.80;73.70;;;;;;5093997;28;19915;-72
2021/05/28 05:23:04;;;;;;;;;;;14.90;74.40;;;;;;5093897;28;19941;-71
2021/05/28 05:25:31;;;;;;;;;;;14.80;74.10;;;;;;5094041;28;20024;-72
2021/05/28 05:27:58;;;;;;;;;;;14.80;74.10;;;;;;5094162;28;20003;-72
2021/05/28 05:30:25;;;;;;;;;;;14.80;74.20;;;;;;5094114;28;19934;-72
2021/05/28 05:32:51;;;;;;;;;;;14.80;74.80;;;;;;5093745;28;19908;-70
2021/05/28 05:35:18;;;;;;;;;;;14.80;74.20;;;;;;5093773;28;20413;-73
2021/05/28 05:37:45;;;;;;;;;;;14.80;75.20;;;;;;5093779;28;19916;-72
2021/05/28 05:40:11;;;;;;;;;;;14.80;75.00;;;;;;5093672;28;20383;-70
2021/05/28 05:42:39;;;;;;;;;;;14.80;74.20;;;;;;5093617;28;19960;-71
2021/05/28 05:45:07;;;;;;;;;;;14.80;74.40;;;;;;5092434;28;19970;-70
2021/05/28 05:47:33;;;;;;;;;;;14.70;73.40;;;;;;5092291;28;19919;-70
2021/05/28 05:50:00;;;;;;;;;;;14.60;73.10;;;;;;5093380;28;20259;-69
2021/05/28 05:52:27;;;;;;;;;;;14.50;73.60;;;;;;5093500;28;19908;-70
2021/05/28 05:54:54;;;;;;;;;;;14.50;75.20;;;;;;5093225;28;19913;-72
2021/05/28 05:57:20;;;;;;;;;;;14.40;75.70;;;;;;5093266;28;20009;-69
2021/05/28 05:59:47;;;;;;;;;;;14.40;75.30;;;;;;5093442;28;19908;-72
2021/05/28 06:02:14;;;;;;;;;;;14.40;76.10;;;;;;5093486;28;19908;-71
2021/05/28 06:04:40;;;;;;;;;;;14.40;75.50;;;;;;5093382;28;19909;-71
2021/05/28 06:07:07;;;;;;;;;;;14.30;76.30;;;;;;5093323;28;19947;-70
2021/05/28 06:09:34;;;;;;;;;;;14.40;75.60;;;;;;5093430;28;19915;-71
2021/05/28 06:12:00;;;;;;;;;;;14.30;76.30;;;;;;5093519;28;20049;-68
2021/05/28 06:14:27;;;;;;;;;;;14.30;78.30;;;;;;5093411;28;19915;-68
2021/05/28 06:16:54;;;;;;;;;;;14.20;78.10;;;;;;5092969;28;19912;-69
2021/05/28 06:19:20;;;;;;;;;;;14.10;78.10;;;;;;5093332;28;20007;-71
2021/05/28 06:21:47;;;;;;;;;;;14.00;78.90;;;;;;5093767;28;19908;-72
2021/05/28 06:24:14;;;;;;;;;;;14.00;78.30;;;;;;5093974;28;19953;-70
2021/05/28 06:26:40;;;;;;;;;;;14.00;79.80;;;;;;5095147;28;19915;-70
2021/05/28 06:29:07;;;;;;;;;;;14.00;79.20;;;;;;5100473;28;19992;-71
2021/05/28 06:31:35;;;;;;;;;;;13.90;78.70;;;;;;5109302;28;19966;-71
2021/05/28 06:34:02;;;;;;;;;;;13.90;78.20;;;;;;5109954;28;19908;-70
2021/05/28 06:36:29;;;;;;;;;;;13.90;78.90;;;;;;5100167;28;19916;-70
2021/05/28 06:38:56;;;;;;;;;;;13.90;78.50;;;;;;5104032;28;19912;-71
2021/05/28 06:41:23;;;;;;;;;;;13.80;80.30;;;;;;5106456;28;19923;-72
2021/05/28 06:43:49;;;;;;;;;;;13.90;80.80;;;;;;5107065;28;20302;-69
2021/05/28 06:46:17;;;;;;;;;;;13.80;79.10;;;;;;5106360;28;19912;-71
2021/05/28 06:48:44;;;;;;;;;;;13.90;79.30;;;;;;5101534;28;20358;-71
2021/05/28 06:51:11;;;;;;;;;;;13.80;80.40;;;;;;5092788;28;19954;-70
2021/05/28 06:53:37;;;;;;;;;;;13.80;79.00;;;;;;5093029;28;19909;-70
2021/05/28 06:56:05;;;;;;;;;;;13.80;80.50;;;;;;5093063;28;19916;-71
2021/05/28 06:58:32;;;;;;;;;;;13.80;79.60;;;;;;5093063;28;19912;-71
2021/05/28 07:00:59;;;;;;;;;;;13.80;80.20;;;;;;5093290;28;19909;-70
2021/05/28 07:03:25;;;;;;;;;;;13.70;80.50;;;;;;5096844;28;20320;-70
2021/05/28 07:05:52;;;;;;;;;;;13.80;80.10;;;;;;5096838;28;19908;-71
2021/05/28 07:08:19;;;;;;;;;;;13.70;79.40;;;;;;5097037;28;19912;-70
2021/05/28 07:10:46;;;;;;;;;;;13.70;80.30;;;;;;5096403;28;19912;-70
2021/05/28 07:13:12;;;;;;;;;;;13.70;79.20;;;;;;5074635;28;20007;-70
2021/05/28 07:15:40;;;;;;;;;;;13.60;80.00;;;;;;5074334;28;20378;-70
2021/05/28 07:18:06;;;;;;;;;;;13.70;78.40;;;;;;5074129;28;20606;-71
2021/05/28 07:20:33;;;;;;;;;;;13.70;77.90;;;;;;5073893;28;20042;-71
2021/05/28 07:23:00;;;;;;;;;;;13.70;78.10;;;;;;5074008;28;19908;-71
2021/05/28 07:25:27;;;;;;;;;;;13.70;78.10;;;;;;5072762;28;19908;-71
2021/05/28 07:27:53;;;;;;;;;;;13.60;77.60;;;;;;5074103;28;19924;-71
2021/05/28 07:30:20;;;;;;;;;;;13.60;78.20;;;;;;5074140;28;19962;-71
2021/05/28 07:32:50;;;;;;;;;;;13.60;77.20;;;;;;5073787;28;19908;-72
2021/05/28 07:35:16;;;;;;;;;;;13.60;77.70;;;;;;5073802;28;20307;-71
2021/05/28 07:37:43;;;;;;;;;;;13.50;77.70;;;;;;5073715;28;19923;-70
2021/05/28 07:40:10;;;;;;;;;;;13.60;76.70;;;;;;5074661;28;19963;-70
2021/05/28 07:42:37;;;;;;;;;;;13.60;76.00;;;;;;5074392;28;20011;-70
2021/05/28 07:45:05;;;;;;;;;;;13.60;75.40;;;;;;5074587;28;19966;-71
2021/05/28 07:47:32;;;;;;;;;;;13.60;76.10;;;;;;5074594;28;19913;-72
2021/05/28 07:50:00;;;;;;;;;;;13.50;75.80;;;;;;5073960;28;19912;-71
2021/05/28 07:52:27;;;;;;;;;;;13.50;76.20;;;;;;5073248;28;20343;-71
2021/05/28 07:54:54;;;;;;;;;;;13.50;75.90;;;;;;5073395;28;19915;-71
2021/05/28 07:57:20;;;;;;;;;;;13.50;76.50;;;;;;5073378;28;19917;-69
2021/05/28 07:59:47;;;;;;;;;;;13.50;76.20;;;;;;5073464;28;19916;-69
2021/05/28 08:02:15;;;;;;;;;;;13.50;75.90;;;;;;5073297;28;19909;-71
2021/05/28 08:04:42;;;;;;;;;;;13.40;75.70;;;;;;5072514;28;19909;-71
2021/05/28 08:07:08;;;;;;;;;;;13.40;76.20;;;;;;5073314;28;19908;-70
2021/05/28 08:09:35;;;;;;;;;;;13.40;74.80;;;;;;5073129;28;20249;-71
2021/05/28 08:12:02;;;;;;;;;;;13.40;75.00;;;;;;5072793;28;19912;-68
2021/05/28 08:14:29;;;;;;;;;;;13.30;75.20;;;;;;5073136;28;19935;-69
2021/05/28 08:16:55;;;;;;;;;;;13.30;74.70;;;;;;5090195;28;20010;-70
2021/05/28 08:19:22;;;;;;;;;;;13.30;74.60;;;;;;5092559;28;20019;-70
2021/05/28 08:21:49;;;;;;;;;;;13.30;73.90;;;;;;5092869;28;20036;-69
2021/05/28 08:24:16;;;;;;;;;;;13.30;73.50;;;;;;5092725;28;19916;-71
2021/05/28 08:26:43;;;;;;;;;;;13.30;73.50;;;;;;5092818;28;19927;-70
2021/05/28 08:29:09;;;;;;;;;;;13.40;72.80;;;;;;5090204;28;19927;-70
2021/05/28 08:31:36;;;;;;;;;;;13.40;73.10;;;;;;5092404;28;19935;-69
2021/05/28 08:34:03;;;;;;;;;;;13.30;73.20;;;;;;5092390;28;20401;-70
2021/05/28 08:36:29;;;;;;;;;;;13.40;73.80;;;;;;5091429;28;19912;-69
2021/05/28 08:38:56;;;;;;;;;;;13.30;74.00;;;;;;5091209;28;19969;-69
2021/05/28 08:41:23;;;;;;;;;;;13.40;74.50;;;;;;5091383;28;19912;-71
2021/05/28 08:43:50;;;;;;;;;;;13.40;74.70;;;;;;5090492;28;19924;-69
2021/05/28 08:46:17;;;;;;;;;;;13.30;75.00;;;;;;5090968;28;19908;-69
2021/05/28 08:48:45;;;;;;;;;;;13.30;75.50;;;;;;5090513;28;19938;-70
2021/05/28 08:51:12;;;;;;;;;;;13.40;75.50;;;;;;5092012;28;19954;-70
2021/05/28 08:53:38;;;;;;;;;;;13.30;75.90;;;;;;5092784;28;19916;-70
2021/05/28 08:56:08;;;;;;;;;;;13.30;76.80;;;;;;5092066;28;19944;-70
2021/05/28 08:58:36;;;;;;;;;;;13.20;76.40;;;;;;5092499;28;19962;-70
2021/05/28 09:01:03;;;;;;;;;;;13.20;76.80;;;;;;5092293;28;20297;-69
2021/05/28 09:03:34;;;;;;;;;;;13.10;77.20;;;;;;5092622;28;20000;-67
2021/05/28 09:06:02;;;;;;;;;;;13.10;77.40;;;;;;5092641;28;20350;-70
2021/05/28 09:08:29;;;;;;;;;;;13.10;78.30;;;;;;5092479;28;20020;-70
2021/05/28 09:11:04;;;;;;;;;;;13.00;78.70;;;;;;5092008;28;19922;-69
2021/05/28 09:13:30;;;;;;;;;;;13.00;79.40;;;;;;5092559;28;19915;-67
2021/05/28 09:16:04;;;;;;;;;;;13.00;79.20;;;;;;5092252;28;20343;-68
2021/05/28 09:18:40;;;;;;;;;;;13.00;79.50;;;;;;5092398;28;19912;-70
2021/05/28 09:21:07;;;;;;;;;;;13.00;79.70;;;;;;5090552;28;19926;-71
2021/05/28 09:23:34;;;;;;;;;;;12.90;79.90;;;;;;5091314;28;19909;-68
2021/05/28 09:26:02;;;;;;;;;;;12.90;80.40;;;;;;5092235;28;20347;-70
2021/05/28 09:28:35;;;;;;;;;;;12.90;80.90;;;;;;5092209;28;19916;-70
2021/05/28 09:31:02;;;;;;;;;;;12.80;80.70;;;;;;5091916;28;19914;-68
2021/05/28 09:33:33;;;;;;;;;;;12.80;80.70;;;;;;5092153;28;19919;-71
2021/05/28 09:36:26;;;;;;;;;;;12.80;81.00;;;;;;5091708;28;19920;-72
2021/05/28 09:39:12;;;;;;;;;;;12.80;81.10;;;;;;5090905;28;19951;-67
2021/05/28 09:41:49;;;;;;;;;;;12.70;82.10;;;;;;5092212;28;19912;-69
2021/05/28 09:44:15;;;;;;;;;;;12.70;81.20;;;;;;5091937;28;19920;-68
2021/05/28 09:46:57;;;;;;;;;;;12.70;82.20;;;;;;5092206;28;20401;-71
2021/05/28 09:49:29;;;;;;;;;;;12.70;82.30;;;;;;5092008;28;19912;-69
2021/05/28 09:52:03;;;;;;;;;;;12.60;82.80;;;;;;5092308;28;20003;-69
2021/05/28 09:54:29;;;;;;;;;;;12.70;83.00;;;;;;5092373;28;19990;-67
2021/05/28 09:56:56;;;;;;;;;;;12.60;83.40;;;;;;5091871;28;19920;-70
2021/05/28 09:59:23;;;;;;;;;;;12.70;83.80;;;;;;5091729;28;19914;-69
2021/05/28 10:01:59;;;;;;;;;;;12.70;83.30;;;;;;5091272;28;19915;-70
2021/05/28 10:04:26;;;;;;;;;;;12.70;83.90;;;;;;5091747;28;19963;-71
2021/05/28 10:06:53;;;;;;;;;;;12.70;83.70;;;;;;5091343;28;20573;-72
2021/05/28 10:09:21;;;;;;;;;;;12.70;84.00;;;;;;5091520;28;19960;-70
2021/05/28 10:11:47;;;;;;;;;;;12.70;84.50;;;;;;5091156;28;20019;-70
2021/05/28 10:14:14;;;;;;;;;;;12.70;84.20;;;;;;5086362;28;19913;-71
2021/05/28 10:16:41;;;;;;;;;;;12.60;84.70;;;;;;5070147;28;19912;-70
2021/05/28 10:19:08;;;;;;;;;;;12.60;84.80;;;;;;5070884;28;19995;-71
2021/05/28 10:21:35;;;;;;;;;;;12.60;84.70;;;;;;5071081;28;19915;-70
2021/05/28 10:24:02;;;;;;;;;;;12.60;84.70;;;;;;5071138;28;20264;-70
2021/05/28 10:26:30;;;;;;;;;;;12.50;84.20;;;;;;5071162;28;20238;-69
2021/05/28 10:28:56;;;;;;;;;;;12.60;84.40;;;;;;5070352;28;20382;-69
2021/05/28 10:31:41;;;;;;;;;;;12.60;84.10;;;;;;5070411;28;19916;-70
2021/05/28 10:34:08;;;;;;;;;;;12.60;83.60;;;;;;5070869;28;19954;-69
2021/05/28 10:36:44;;;;;;;;;;;12.70;84.10;;;;;;5070784;28;19924;-67
2021/05/28 10:39:11;;;;;;;;;;;12.70;84.50;;;;;;5070827;28;20367;-67
2021/05/28 10:41:39;;;;;;;;;;;12.70;85.00;;;;;;5070450;28;19908;-68
2021/05/28 10:44:09;;;;;;;;;;;12.70;85.00;;;;;;5070705;28;19925;-70
2021/05/28 10:46:36;;;;;;;;;;;12.70;85.50;;;;;;5070032;28;20366;-67
2021/05/28 10:49:09;;;;;;;;;;;12.70;85.90;;;;;;5070395;28;20383;-68
2021/05/28 10:51:37;;;;;;;;;;;12.60;86.00;;;;;;5070618;28;19912;-70
2021/05/28 10:54:03;;;;;;;;;;;12.60;86.50;;;;;;5102658;28;19912;-70
2021/05/28 10:56:36;;;;;;;;;;;12.60;86.20;;;;;;5070525;28;19912;-70
2021/05/28 10:59:03;;;;;;;;;;;12.50;86.00;;;;;;5070376;28;20320;-70
2021/05/28 11:01:35;;;;;;;;;;;12.50;86.20;;;;;;5070071;28;19908;-70
2021/05/28 11:04:06;;;;;;;;;;;12.40;86.20;;;;;;5102710;28;19948;-70
2021/05/28 11:06:33;;;;;;;;;;;12.40;85.60;;;;;;5070400;28;19935;-69
2021/05/28 11:09:03;;;;;;;;;;;12.40;85.90;;;;;;5070293;28;19909;-68
2021/05/28 11:11:38;;;;;;;;;;;12.30;85.40;;;;;;5070194;28;20422;-67
2021/05/28 11:14:06;;;;;;;;;;;12.30;85.50;;;;;;5072586;28;19991;-67
2021/05/28 11:16:51;;;;;;;;;;;12.30;85.20;;;;;;5072353;28;19912;-67
2021/05/28 11:19:24;;;;;;;;;;;12.30;84.90;;;;;;5072550;28;19958;-68
2021/05/28 11:21:54;;;;;;;;;;;12.30;85.20;;;;;;5074402;28;20007;-67
2021/05/28 11:24:22;;;;;;;;;;;12.30;85.40;;;;;;5086590;28;19908;-68
2021/05/28 11:26:48;;;;;;;;;;;12.30;85.30;;;;;;5089566;28;19962;-69
2021/05/28 11:29:21;;;;;;;;;;;12.30;85.10;;;;;;5089565;28;20018;-67
2021/05/28 11:31:50;;;;;;;;;;;12.20;85.60;;;;;;5089805;28;19908;-70
2021/05/28 11:34:17;;;;;;;;;;;12.20;85.20;;;;;;5089381;28;19912;-68
2021/05/28 11:36:45;;;;;;;;;;;12.20;85.90;;;;;;5089564;28;20440;-68
2021/05/28 11:39:23;;;;;;;;;;;12.10;85.50;;;;;;5089777;28;19908;-69
2021/05/28 11:41:52;;;;;;;;;;;12.10;86.30;;;;;;5090027;28;19913;-69
2021/05/28 11:44:20;;;;;;;;;;;12.00;86.30;;;;;;5089530;28;20013;-68
2021/05/28 11:46:48;;;;;;;;;;;12.00;86.40;;;;;;5089457;28;19913;-68
2021/05/28 11:49:15;;;;;;;;;;;11.90;86.70;;;;;;5093374;28;19908;-69
2021/05/28 11:51:43;;;;;;;;;;;11.80;86.70;;;;;;5093295;28;20372;-67
2021/05/28 11:54:22;;;;;;;;;;;11.80;87.20;;;;;;5093266;28;19914;-67
2021/05/28 11:56:55;;;;;;;;;;;11.70;87.10;;;;;;5093062;28;20293;-68
2021/05/28 11:59:41;;;;;;;;;;;11.70;87.20;;;;;;5092572;28;19997;-70
2021/05/28 12:02:08;;;;;;;;;;;11.60;87.50;;;;;;5093047;28;19916;-68
2021/05/28 12:04:36;;;;;;;;;;;11.60;87.70;;;;;;5093171;28;20395;-69
2021/05/28 12:07:09;;;;;;;;;;;11.50;87.60;;;;;;5092962;28;19965;-69
2021/05/28 12:09:55;;;;;;;;;;;11.50;87.70;;;;;;5093054;28;20306;-70
2021/05/28 12:12:22;;;;;;;;;;;11.40;88.10;;;;;;5092712;28;19908;-67
2021/05/28 12:15:04;;;;;;;;;;;11.40;88.60;;;;;;5092407;28;19961;-69
2021/05/28 12:17:34;;;;;;;;;;;11.40;88.60;;;;;;5092823;28;19916;-70
2021/05/28 12:20:17;;;;;;;;;;;11.30;88.90;;;;;;5092976;28;20003;-66
2021/05/28 12:22:56;;;;;;;;;;;11.30;89.40;;;;;;5092761;28;20006;-70
2021/05/28 12:25:23;;;;;;;;;;;11.20;89.70;;;;;;5092686;28;20389;-69
2021/05/28 12:27:50;;;;;;;;;;;11.20;89.90;;;;;;5092536;28;19908;-68
2021/05/28 12:30:17;;;;;;;;;;;11.10;90.20;;;;;;5092474;28;19912;-68
2021/05/28 12:32:43;;;;;;;;;;;11.10;90.20;;;;;;5092398;28;19916;-69
2021/05/28 12:35:10;;;;;;;;;;;11.10;90.30;;;;;;5092362;28;20007;-69
2021/05/28 12:37:40;;;;;;;;;;;11.00;90.60;;;;;;5092742;28;19923;-71
2021/05/28 12:40:07;;;;;;;;;;;11.10;90.90;;;;;;5091103;28;19912;-71
2021/05/28 12:42:34;;;;;;;;;;;11.00;90.90;;;;;;5092573;28;19908;-71
2021/05/28 12:45:12;;;;;;;;;;;11.00;90.90;;;;;;5092338;28;20346;-69
2021/05/28 12:47:45;;;;;;;;;;;10.90;91.10;;;;;;5092803;28;20401;-69
2021/05/28 12:50:44;;;;;;;;;;;10.90;91.30;;;;;;5092651;28;19908;-68
2021/05/28 12:53:12;;;;;;;;;;;10.90;91.30;;;;;;5080067;28;19955;-69
2021/05/28 12:55:39;;;;;;;;;;;10.80;91.10;;;;;;5092759;28;19946;-70
2021/05/28 12:58:20;;;;;;;;;;;10.90;90.70;;;;;;5091832;28;19924;-70
2021/05/28 13:00:52;;;;;;;;;;;10.80;91.20;;;;;;5091538;28;19915;-66
2021/05/28 13:03:36;;;;;;;;;;;10.90;91.00;;;;;;5091846;28;19947;-69
2021/05/28 13:06:23;;;;;;;;;;;10.90;90.90;;;;;;5091439;28;19951;-68
2021/05/28 13:08:50;;;;;;;;;;;10.80;91.10;;;;;;5091691;28;19930;-69
2021/05/28 13:11:17;;;;;;;;;;;10.80;91.20;;;;;;5091928;28;19914;-71
2021/05/28 13:13:48;;;;;;;;;;;10.80;91.00;;;;;;5090613;28;19908;-70
2021/05/28 13:16:23;;;;;;;;;;;10.80;91.10;;;;;;5091578;28;19972;-69
2021/05/28 13:18:50;;;;;;;;;;;10.80;90.70;;;;;;5091278;28;19909;-69
2021/05/28 13:21:21;;;;;;;;;;;10.80;90.90;;;;;;5124086;27;19908;-70
2021/05/28 13:23:47;;;;;;;;;;;10.70;90.90;;;;;;5090314;28;19908;-68
2021/05/28 13:26:14;;;;;;;;;;;10.70;91.00;;;;;;5091569;28;19940;-67
2021/05/28 13:28:41;;;;;;;;;;;10.70;91.00;;;;;;5108630;28;19907;-67
2021/05/28 13:31:08;;;;;;;;;;;10.70;91.20;;;;;;5112137;28;19934;-68
2021/05/28 13:33:39;;;;;;;;;;;10.60;91.30;;;;;;5089610;28;19915;-68
2021/05/28 13:36:07;;;;;;;;;;;10.60;91.40;;;;;;5073553;28;19958;-69
2021/05/28 13:38:36;;;;;;;;;;;10.60;91.30;;;;;;5071135;28;19962;-70
2021/05/28 13:42:03;;;;;;;;;;;10.60;91.40;;;;;;5070792;28;19915;-70
2021/05/28 13:43:58;;;;;;;;;;;10.50;91.50;;;;;;5065567;28;19924;-69
2021/05/28 13:46:25;;;;;;;;;;;10.50;91.60;;;;;;5070894;28;19912;-68
2021/05/28 13:48:55;;;;;;;;;;;10.50;91.60;;;;;;5103252;28;19936;-67
2021/05/28 13:51:22;;;;;;;;;;;10.60;91.60;;;;;;5071165;28;19943;-67
2021/05/28 13:53:48;;;;;;;;;;;10.60;91.30;;;;;;5069334;28;19962;-67
2021/05/28 13:56:15;;;;;;;;;;;10.70;91.20;;;;;;5070435;28;19908;-70
2021/05/28 13:58:43;;;;;;;;;;;10.70;91.40;;;;;;5070183;28;19916;-67
2021/05/28 14:01:11;;;;;;;;;;;10.70;91.20;;;;;;5070551;28;19951;-67
2021/05/28 14:03:37;;;;;;;;;;;10.70;91.10;;;;;;5070645;28;19919;-67
2021/05/28 14:06:04;;;;;;;;;;;10.60;91.40;;;;;;5070773;28;19913;-69
2021/05/28 14:08:31;;;;;;;;;;;10.60;91.40;;;;;;5070952;28;20395;-69
2021/05/28 14:10:58;;;;;;;;;;;10.60;91.30;;;;;;5103321;28;19909;-71
2021/05/28 14:13:27;;;;;;;;;;;10.60;91.30;;;;;;5072723;28;19908;-69
2021/05/28 14:15:54;;;;;;;;;;;10.50;91.40;;;;;;5070594;28;20133;-70
2021/05/28 14:18:21;;;;;;;;;;;10.50;91.80;;;;;;5070335;28;19964;-70
2021/05/28 14:20:47;;;;;;;;;;;10.50;91.10;;;;;;5070370;28;19908;-70
2021/05/28 14:23:14;;;;;;;;;;;10.50;91.50;;;;;;5070685;28;19919;-69